Bartow, FL

2:56 PM EDT on September 23, 2017 (GMT -0400)
Bartow Municipal

Weather History for KBOW - February, 2014

Change the Weather History Date:

Monday, February 10, 2014

  Actual Average Record
Temperature  
Mean Temperature 60 °F -  
Max Temperature 75 °F 72 °F 86 °F (1949)
Min Temperature 46 °F 46 °F 30 °F (1976)
Degree Days  
Heating Degree Days 4    
Growing Degree Days 10 (Base 50)    
Moisture  
Dew Point 48 °F    
Average Humidity 69    
Maximum Humidity 100    
Minimum Humidity 36    
Precipitation  
Precipitation 0.00 in - - ()
Sea Level Pressure  
Sea Level Pressure 30.09 in    
Wind  
Wind Speed 3 mph (North)    
Max Wind Speed 8 mph    
Max Gust Speed -    
Visibility 10 miles    
Events      
Averages and records for this station are not official NWS values.
T = Trace of Precipitation, MM = Missing Value Source: NWS Daily Summary

Daily Weather History Graph

Daily Weather History Graph

Search for Another Location

Airport or City:

Trip Planner

Search our weather history database for the weather conditions in past years. The results will help you decide how hot, cold, wet, or windy it might be!

Date:

Astronomy

Feb. 10, 2014 Rise Set
Actual Time 7:08 AM EST 6:14 PM EST
Civil Twilight 6:44 AM EST 6:38 PM EST
Nautical Twilight 6:16 AM EST 7:06 PM EST
Astronomical Twilight 5:49 AM EST 7:33 PM EST
Moon 2:50 PM EST (2/10) 3:52 AM EST (2/10)
Length of Visible Light 11h 54m
Length of Day
11h 06m
Waxing Gibbous, 84% of the Moon is Illuminated
Feb 10
Waxing Gibbous
Feb 14
Full
Feb 22
Last Quarter
Mar 1
New
Mar 8
First Quarter

Hourly Weather History & Observations

Time (EST) Temp. Dew Point Humidity Pressure Visibility Wind Dir Wind Speed Gust Speed Precip Events Conditions
12:15 AM 55.4 °F 51.8 °F 88% 30.11 in 10.0 mi NE 5.8 mph - N/A   Clear
12:35 AM 53.6 °F 51.8 °F 94% 30.10 in 10.0 mi ENE 5.8 mph - N/A   Clear
12:55 AM 53.6 °F 51.8 °F 94% 30.10 in 10.0 mi East 4.6 mph - N/A   Clear
1:15 AM 51.8 °F 51.8 °F 100% 30.10 in 10.0 mi East 3.5 mph - N/A   Clear
1:35 AM 51.8 °F 51.8 °F 100% 30.10 in 10.0 mi Calm Calm - N/A   Clear
1:55 AM 51.8 °F 51.8 °F 100% 30.10 in 10.0 mi Calm Calm - N/A   Clear
2:15 AM 50.0 °F 50.0 °F 100% 30.09 in 10.0 mi Calm Calm - N/A   Clear
2:35 AM 48.2 °F 48.2 °F 100% 30.09 in 10.0 mi Calm Calm - N/A   Clear
2:55 AM 50.0 °F 50.0 °F 100% 30.09 in 10.0 mi Calm Calm - N/A   Clear
3:15 AM 48.2 °F 48.2 °F 100% 30.09 in 10.0 mi Calm Calm - N/A   Clear
3:35 AM 48.2 °F 48.2 °F 100% 30.09 in 10.0 mi Calm Calm - N/A   Clear
3:55 AM 48.2 °F 48.2 °F 100% 30.09 in 10.0 mi Calm Calm - N/A   Clear
4:15 AM 48.2 °F 48.2 °F 100% 30.09 in 10.0 mi Calm Calm - N/A   Clear
4:35 AM 48.2 °F 48.2 °F 100% 30.09 in 10.0 mi Calm Calm - N/A   Clear
4:55 AM 50.0 °F 50.0 °F 100% 30.09 in 10.0 mi Calm Calm - N/A   Clear
5:15 AM 48.2 °F 48.2 °F 100% 30.10 in 10.0 mi Calm Calm - N/A   Clear
5:35 AM 46.4 °F 46.4 °F 100% 30.10 in 10.0 mi Calm Calm - N/A   Clear
5:55 AM 46.4 °F 46.4 °F 100% 30.10 in 10.0 mi Calm Calm - N/A   Clear
6:15 AM 48.2 °F 48.2 °F 100% 30.11 in 10.0 mi Calm Calm - N/A   Clear
7:47 AM 46.4 °F 46.4 °F 100% 30.12 in 7.0 mi Calm Calm - N/A   Clear
8:50 AM 57.2 °F 51.8 °F 82% 30.14 in 10.0 mi ENE 4.6 mph - N/A   Clear
9:50 AM 64.4 °F 48.2 °F 56% 30.15 in 10.0 mi East 6.9 mph - N/A   Clear
10:51 AM 68.0 °F 48.2 °F 49% 30.15 in 10.0 mi ENE 4.6 mph - N/A   Clear
11:55 AM 71.6 °F 48.2 °F 43% 30.12 in 10.0 mi NNE 4.6 mph - N/A   Partly Cloudy
12:48 PM 71.6 °F 48.2 °F 43% 30.10 in 10.0 mi West 6.9 mph - N/A   Partly Cloudy
1:50 PM 73.4 °F 46.4 °F 38% 30.07 in 10.0 mi West 5.8 mph - N/A   Partly Cloudy
2:35 PM 73.4 °F 46.4 °F 38% 30.06 in 10.0 mi West 3.5 mph - N/A   Clear
2:50 PM 73.4 °F 46.4 °F 38% 30.06 in 10.0 mi NNW 6.9 mph - N/A   Partly Cloudy
2:55 PM 73.4 °F 46.4 °F 38% 30.05 in 10.0 mi NW 6.9 mph - N/A   Clear
3:15 PM 73.4 °F 46.4 °F 38% 30.05 in 10.0 mi West 8.1 mph - N/A   Clear
3:35 PM 73.4 °F 46.4 °F 38% 30.05 in 10.0 mi NW 8.1 mph - N/A   Clear
3:48 PM 73.4 °F 46.4 °F 38% 30.05 in 10.0 mi NNW 4.6 mph - N/A   Partly Cloudy
3:55 PM 73.4 °F 46.4 °F 38% 30.05 in 10.0 mi NW 5.8 mph - N/A   Clear
4:15 PM 75.2 °F 46.4 °F 36% 30.05 in 10.0 mi NW 4.6 mph - N/A   Clear
4:35 PM 73.4 °F 46.4 °F 38% 30.05 in 10.0 mi WNW 8.1 mph - N/A   Clear
4:54 PM 73.4 °F 46.4 °F 38% 30.05 in 10.0 mi WNW 4.6 mph - N/A   Clear
4:55 PM 73.4 °F 46.4 °F 38% 30.05 in 10.0 mi WNW 4.6 mph - N/A   Clear
5:15 PM 73.4 °F 46.4 °F 38% 30.05 in 10.0 mi NNW 4.6 mph - N/A   Clear
5:35 PM 73.4 °F 44.6 °F 36% 30.06 in 10.0 mi North 5.8 mph - N/A   Clear
5:55 PM 73.4 °F 44.6 °F 36% 30.06 in 10.0 mi North 4.6 mph - N/A   Clear
6:15 PM 71.6 °F 46.4 °F 41% 30.07 in 10.0 mi Calm Calm - N/A   Clear
6:35 PM 68.0 °F 46.4 °F 46% 30.07 in 10.0 mi Calm Calm - N/A   Clear
6:55 PM 64.4 °F 48.2 °F 56% 30.07 in 10.0 mi Calm Calm - N/A   Clear
7:15 PM 60.8 °F 48.2 °F 63% 30.07 in 10.0 mi Calm Calm - N/A   Clear
7:35 PM 64.4 °F 48.2 °F 56% 30.08 in 10.0 mi NNE 5.8 mph - N/A   Clear
7:55 PM 64.4 °F 48.2 °F 56% 30.08 in 10.0 mi NNE 4.6 mph - N/A   Clear
8:15 PM 64.4 °F 48.2 °F 56% 30.08 in 10.0 mi NNE 4.6 mph - N/A   Clear
8:35 PM 60.8 °F 48.2 °F 63% 30.09 in 10.0 mi Calm Calm - N/A   Clear
8:55 PM 59.0 °F 48.2 °F 67% 30.09 in 10.0 mi NE 3.5 mph - N/A   Clear
9:15 PM 60.8 °F 48.2 °F 63% 30.10 in 10.0 mi East 5.8 mph - N/A   Clear
9:35 PM 59.0 °F 50.0 °F 72% 30.11 in 10.0 mi ENE 4.6 mph - N/A   Clear
9:55 PM 59.0 °F 50.0 °F 72% 30.11 in 10.0 mi East 3.5 mph - N/A   Clear
10:15 PM 57.2 °F 50.0 °F 77% 30.11 in 10.0 mi Calm Calm - N/A   Clear
10:35 PM 57.2 °F 48.2 °F 72% 30.11 in 10.0 mi Calm Calm - N/A   Clear
10:55 PM 53.6 °F 48.2 °F 82% 30.11 in 10.0 mi Calm Calm - N/A   Clear
11:15 PM 53.6 °F 50.0 °F 88% 30.11 in 10.0 mi Calm Calm - N/A   Clear
11:35 PM 53.6 °F 51.8 °F 94% 30.11 in 10.0 mi Calm Calm - N/A   Clear
11:55 PM 53.6 °F 51.8 °F 94% 30.10 in 10.0 mi Calm Calm - N/A   Clear